Capt Primeaux — WDI3600 — position and weather

sailwx.info

Track history (hours):
 
Tides and Currents Weather Stations Pressure Air Temp Water Temp Dewpoint Dewpoint Depression Visibility Wind Speed Wind Dir Waves Ship Positions

Capt Primeaux

Owner: Higman Barge Line, Inc., Orange, TX. More information available from US FCC via Universal Licensing System and Coast Guard Vessel Documentation Center.

Last reported at 2017-Nov-17 11:23 UTC. Time now 2017-Nov-19 18:08 UTC.
Position N 30°04' W 093°41'.

Length 26 m; draft 3 m.

Type: Towing. MMSI: 367690010.

Date/timePositionNaut miles runAvg speedWind from/ knotsBaromVisibWave heightAir tempDewpointWater temp
2017-Nov-17 11:23N 30°04' W 093°41'2 5.3
2017-Nov-17 11:00N 30°04' W 093°38'3 5.2
2017-Nov-17 10:24N 30°04' W 093°35'2 5.3
2017-Nov-17 10:00N 30°04' W 093°32'2 4.6
2017-Nov-17 09:30N 30°04' W 093°30'3 5.4
2017-Nov-17 09:00N 30°04' W 093°27'3 5.4
2017-Nov-17 08:30N 30°04' W 093°23'2 4.8
2017-Nov-17 08:00N 30°04' W 093°21'2 4.9
2017-Nov-17 07:30N 30°06' W 093°20'2 3.5
2017-Nov-17 06:59N 30°08' W 093°19'0 0.0
2017-Nov-17 06:29N 30°08' W 093°19'0 0.0
2017-Nov-17 05:59N 30°08' W 093°19'0 0.0
2017-Nov-17 05:29N 30°08' W 093°19'0 0.0
2017-Nov-17 04:59N 30°08' W 093°19'0 0.0
2017-Nov-17 04:29N 30°08' W 093°19'0 0.0
2017-Nov-17 03:59N 30°08' W 093°19'0 0.0
2017-Nov-17 03:29N 30°08' W 093°19'0 0.0
2017-Nov-17 02:59N 30°08' W 093°19'0 0.0
2017-Nov-17 02:29N 30°08' W 093°19'0 0.0
2017-Nov-17 01:59N 30°08' W 093°19'0 0.0
2017-Nov-17 01:29N 30°08' W 093°19'0 0.0
2017-Nov-17 00:59N 30°08' W 093°19'0 0.0
2017-Nov-17 00:29N 30°08' W 093°19'0 0.0
2017-Nov-16 23:59N 30°08' W 093°19'0 0.0
2017-Nov-16 23:29N 30°08' W 093°19'0 0.0
2017-Nov-16 22:59N 30°08' W 093°19'0 0.0
2017-Nov-16 22:29N 30°08' W 093°19'0 0.0
2017-Nov-16 21:59N 30°08' W 093°19'0 0.0
2017-Nov-16 21:29N 30°08' W 093°19'0 0.0
2017-Nov-16 20:59N 30°08' W 093°19'0 0.0
2017-Nov-16 20:29N 30°08' W 093°19'0 0.0
2017-Nov-16 19:59N 30°08' W 093°19'0 0.0
2017-Nov-16 19:29N 30°08' W 093°19'0 0.0
2017-Nov-16 18:59N 30°08' W 093°19'0 0.0
2017-Nov-16 18:29N 30°08' W 093°19'0 0.0
2017-Nov-16 17:59N 30°08' W 093°19'0 0.0
2017-Nov-16 17:29N 30°08' W 093°19'0 0.0
2017-Nov-16 16:59N 30°08' W 093°19'0 0.0
2017-Nov-16 16:29N 30°08' W 093°19'0 0.0
2017-Nov-16 15:59N 30°08' W 093°19'0 0.0
2017-Nov-16 15:29N 30°08' W 093°19'0 0.0
2017-Nov-16 14:56N 30°08' W 093°19'0 0.0
2017-Nov-16 14:29N 30°08' W 093°19'0 0.0
2017-Nov-16 13:59N 30°08' W 093°19'0 0.0
2017-Nov-16 13:29N 30°08' W 093°19'0 0.0
2017-Nov-16 12:59N 30°08' W 093°19'0 0.0
2017-Nov-16 12:29N 30°08' W 093°19'0 0.0
2017-Nov-16 11:59N 30°08' W 093°19'0 0.0
2017-Nov-16 11:29N 30°08' W 093°19'0 0.0
2017-Nov-16 10:59N 30°08' W 093°19'0 0.0
2017-Nov-16 10:29N 30°08' W 093°19'0 0.0
2017-Nov-16 09:59N 30°08' W 093°19'0 0.0
2017-Nov-16 09:29N 30°08' W 093°19'0 0.0
2017-Nov-16 08:59N 30°08' W 093°19'0 0.0
2017-Nov-16 08:29N 30°08' W 093°19'0 0.5
2017-Nov-16 07:59N 30°08' W 093°20'0 0.1
2017-Nov-16 07:29N 30°08' W 093°20'1 2.5
2017-Nov-16 07:00N 30°07' W 093°20'2 3.3
2017-Nov-16 06:30N 30°05' W 093°20'0 0.8
2017-Nov-16 05:59N 30°05' W 093°20'0 0.0
2017-Nov-16 05:29N 30°05' W 093°20'0 0.0
2017-Nov-16 04:59N 30°05' W 093°20'0 0.0
2017-Nov-16 04:29N 30°05' W 093°20'0 0.0
2017-Nov-16 03:59N 30°05' W 093°20'0 0.0
2017-Nov-16 03:29N 30°05' W 093°20'0 0.0
2017-Nov-16 02:59N 30°05' W 093°20'0 0.0
2017-Nov-16 02:29N 30°05' W 093°20'0 0.0
2017-Nov-16 01:59N 30°05' W 093°20'0 0.0
2017-Nov-16 01:29N 30°05' W 093°20'0 0.0
2017-Nov-16 00:59N 30°05' W 093°20'0 0.0
2017-Nov-16 00:29N 30°05' W 093°20'0 0.0
2017-Nov-15 23:59N 30°05' W 093°20'0 0.0
2017-Nov-15 23:29N 30°05' W 093°20'0 0.0
2017-Nov-15 22:59N 30°05' W 093°20'0 0.0
2017-Nov-15 22:29N 30°05' W 093°20'0 0.0
2017-Nov-15 21:59N 30°05' W 093°20'0 0.0
2017-Nov-15 21:29N 30°05' W 093°20'0 0.0
2017-Nov-15 20:59N 30°05' W 093°20'0 0.0
2017-Nov-15 20:29N 30°05' W 093°20'0 0.0
2017-Nov-15 19:59N 30°05' W 093°20'0 0.0
2017-Nov-15 19:29N 30°05' W 093°20'0 0.0
2017-Nov-15 18:59N 30°05' W 093°20'0 0.0
2017-Nov-15 18:29N 30°05' W 093°20'0 0.0
2017-Nov-15 17:59N 30°05' W 093°20'0 0.0
2017-Nov-15 17:29N 30°05' W 093°20'0 0.0
2017-Nov-15 17:00N 30°05' W 093°20'0 0.0
2017-Nov-15 16:30N 30°05' W 093°20'0 0.0
2017-Nov-15 16:00N 30°05' W 093°20'0 0.0
2017-Nov-15 15:30N 30°05' W 093°20'0 0.0
2017-Nov-15 15:00N 30°05' W 093°20'0 0.0
2017-Nov-15 14:30N 30°05' W 093°20'0 0.0
2017-Nov-15 14:00N 30°05' W 093°20'0 0.0
2017-Nov-15 13:30N 30°05' W 093°20'0 0.0
2017-Nov-15 13:00N 30°05' W 093°20'0 0.0
2017-Nov-15 12:30N 30°05' W 093°20'0 0.0
2017-Nov-15 12:00N 30°05' W 093°20'0 0.0
2017-Nov-15 11:30N 30°05' W 093°20'0 0.0
2017-Nov-15 11:00N 30°05' W 093°20'0 0.0
2017-Nov-15 10:30N 30°05' W 093°20'0 0.0
2017-Nov-15 10:00N 30°05' W 093°20'0 0.0
2017-Nov-15 09:30N 30°05' W 093°20'0 0.0
2017-Nov-15 09:00N 30°05' W 093°20'0 0.0
2017-Nov-15 08:30N 30°05' W 093°20'0 0.0
2017-Nov-15 08:00N 30°05' W 093°20'0 0.0
2017-Nov-15 07:30N 30°05' W 093°20'0 0.0
2017-Nov-15 07:00N 30°05' W 093°20'0 0.0
2017-Nov-15 06:30N 30°05' W 093°20'0 0.0
2017-Nov-15 06:00N 30°05' W 093°20'0 0.0
2017-Nov-15 05:30N 30°05' W 093°20'0 0.0
2017-Nov-15 05:00N 30°05' W 093°20'0 0.0
2017-Nov-15 04:30N 30°05' W 093°20'0 0.0
2017-Nov-15 04:00N 30°05' W 093°20'0 0.0
2017-Nov-15 03:30N 30°05' W 093°20'0 0.0
2017-Nov-15 03:00N 30°05' W 093°20'0 0.0
2017-Nov-15 02:30N 30°05' W 093°20'0 0.0
2017-Nov-15 02:00N 30°05' W 093°20'0 0.0
2017-Nov-15 01:30N 30°05' W 093°20'0 0.0
2017-Nov-15 01:00N 30°05' W 093°20'0 0.0
2017-Nov-15 00:30N 30°05' W 093°20'0 0.0
2017-Nov-15 00:00N 30°05' W 093°20'0 0.0
2017-Nov-14 23:30N 30°05' W 093°20'0 0.0
2017-Nov-14 23:00N 30°05' W 093°20'0 0.0
2017-Nov-14 22:30N 30°05' W 093°20'0 0.0
2017-Nov-14 22:00N 30°05' W 093°20'0 0.0
2017-Nov-14 21:30N 30°05' W 093°20'0 0.0
2017-Nov-14 21:00N 30°05' W 093°20'0 0.0
2017-Nov-14 20:30N 30°05' W 093°20'0 0.0
2017-Nov-14 20:00N 30°05' W 093°20'0 0.0
2017-Nov-14 19:28N 30°05' W 093°20'0 0.0
2017-Nov-14 18:58N 30°05' W 093°20'0 0.5
2017-Nov-14 18:30N 30°05' W 093°20'0 0.5
2017-Nov-14 17:59N 30°05' W 093°20'0 0.0
2017-Nov-14 17:29N 30°05' W 093°20'0 0.0
2017-Nov-14 16:59N 30°05' W 093°20'0 0.0
2017-Nov-14 16:29N 30°05' W 093°20'0 0.0
2017-Nov-14 15:59N 30°05' W 093°20'0 0.0
2017-Nov-14 15:29N 30°05' W 093°20'0 0.0
2017-Nov-14 14:59N 30°05' W 093°20'0 0.0
2017-Nov-14 14:29N 30°05' W 093°20'0 0.0
2017-Nov-14 13:59N 30°05' W 093°20'0 0.0
2017-Nov-14 13:29N 30°05' W 093°20'0 0.0
2017-Nov-14 12:59N 30°05' W 093°20'  
2017-Nov-09 06:47N 30°04' W 093°39'2 4.8
2017-Nov-09 06:19N 30°04' W 093°36'2 4.9
2017-Nov-09 06:00N 30°04' W 093°34'2 4.8
2017-Nov-09 05:30N 30°04' W 093°32'3 5.0
2017-Nov-09 05:00N 30°04' W 093°29'3 5.2
2017-Nov-09 04:30N 30°04' W 093°26'3 5.2
2017-Nov-09 04:00N 30°04' W 093°23'2 4.1
2017-Nov-09 03:30N 30°04' W 093°21'2 4.4
2017-Nov-09 03:00N 30°06' W 093°20'2 3.6
2017-Nov-09 02:29N 30°08' W 093°19'0 0.0
2017-Nov-09 01:59N 30°08' W 093°19'0 0.0
2017-Nov-09 01:29N 30°08' W 093°19'0 0.0
2017-Nov-09 00:59N 30°08' W 093°19'0 0.0
2017-Nov-09 00:29N 30°08' W 093°19'0 0.0
2017-Nov-08 23:59N 30°08' W 093°19'0 0.0
2017-Nov-08 23:29N 30°08' W 093°19'0 0.0
2017-Nov-08 22:59N 30°08' W 093°19'0 0.0
2017-Nov-08 22:29N 30°08' W 093°19'0 0.0
2017-Nov-08 21:59N 30°08' W 093°19'0 0.0
2017-Nov-08 21:29N 30°08' W 093°19'0 0.0
2017-Nov-08 20:59N 30°08' W 093°19'0 0.0
2017-Nov-08 20:29N 30°08' W 093°19'0 0.0
2017-Nov-08 19:59N 30°08' W 093°19'0 0.0
2017-Nov-08 19:29N 30°08' W 093°19'0 0.0
2017-Nov-08 18:59N 30°08' W 093°19'0 0.0
2017-Nov-08 18:29N 30°08' W 093°19'0 0.0
2017-Nov-08 17:59N 30°08' W 093°19'0 0.0
2017-Nov-08 17:29N 30°08' W 093°19'0 0.0
2017-Nov-08 16:59N 30°08' W 093°19'0 0.0
2017-Nov-08 16:29N 30°08' W 093°19'0 0.0
2017-Nov-08 15:59N 30°08' W 093°19'0 0.0
2017-Nov-08 15:29N 30°08' W 093°19'0 0.0
2017-Nov-08 14:59N 30°08' W 093°19'0 0.0
2017-Nov-08 14:29N 30°08' W 093°19'0 0.0
2017-Nov-08 13:59N 30°08' W 093°19'0 0.0
2017-Nov-08 13:29N 30°08' W 093°19'0 0.0
2017-Nov-08 12:59N 30°08' W 093°19'0 0.0
2017-Nov-08 12:29N 30°08' W 093°19'0 0.0
2017-Nov-08 11:59N 30°08' W 093°19'0 0.0
2017-Nov-08 11:29N 30°08' W 093°19'0 0.0
2017-Nov-08 10:59N 30°08' W 093°19'0 0.0
2017-Nov-08 10:29N 30°08' W 093°19'0 0.0
2017-Nov-08 09:59N 30°08' W 093°19'0 0.0
2017-Nov-08 09:29N 30°08' W 093°19'0 0.0
2017-Nov-08 08:59N 30°08' W 093°19'0 0.0
2017-Nov-08 08:29N 30°08' W 093°19'0 0.0
2017-Nov-08 07:59N 30°08' W 093°19'0 0.0
2017-Nov-08 07:29N 30°08' W 093°19'0 0.0
2017-Nov-08 06:59N 30°08' W 093°19'0 0.0
2017-Nov-08 06:29N 30°08' W 093°19'0 0.0
2017-Nov-08 05:59N 30°08' W 093°19'0 0.0
2017-Nov-08 05:29N 30°08' W 093°19'0 0.0
2017-Nov-08 04:59N 30°08' W 093°19'0 0.0
2017-Nov-08 04:29N 30°08' W 093°19'0 0.0
2017-Nov-08 03:59N 30°08' W 093°19'0 0.0
2017-Nov-08 03:29N 30°08' W 093°19'0 0.0
2017-Nov-08 02:59N 30°08' W 093°19'0 0.0
2017-Nov-08 02:29N 30°08' W 093°19'0 0.0
2017-Nov-08 01:59N 30°08' W 093°19'0 0.0
2017-Nov-08 01:29N 30°08' W 093°19'0 0.0
2017-Nov-08 00:59N 30°08' W 093°19'0 0.0
2017-Nov-08 00:29N 30°08' W 093°19'0 0.3
2017-Nov-08 00:00N 30°08' W 093°19'2 3.9
2017-Nov-07 23:30N 30°06' W 093°20'2 3.2
2017-Nov-07 22:59N 30°05' W 093°20'0 0.0
2017-Nov-07 22:29N 30°05' W 093°20'0 0.0
2017-Nov-07 21:59N 30°05' W 093°20'1 1.1
2017-Nov-07 21:30N 30°05' W 093°20'1 1.0
2017-Nov-07 21:00N 30°05' W 093°20'0 0.0
2017-Nov-07 20:30N 30°05' W 093°20'1 1.1
2017-Nov-07 20:00N 30°05' W 093°20'0 0.2
2017-Nov-07 19:29N 30°05' W 093°20'0 0.0
2017-Nov-07 18:59N 30°05' W 093°20'0 0.0
2017-Nov-07 18:29N 30°05' W 093°20'0 0.0
2017-Nov-07 17:59N 30°05' W 093°20'0 0.0
2017-Nov-07 17:29N 30°05' W 093°20'0 0.0
2017-Nov-07 16:59N 30°05' W 093°20'0 0.0
2017-Nov-07 16:29N 30°05' W 093°20'0 0.0
2017-Nov-07 15:59N 30°05' W 093°20'0 0.0
2017-Nov-07 15:23N 30°05' W 093°20'0 0.0
2017-Nov-07 14:59N 30°05' W 093°20'0 0.0
2017-Nov-07 14:29N 30°05' W 093°20'1 1.1
2017-Nov-07 14:01N 30°05' W 093°20'0 0.0
2017-Nov-07 13:27N 30°05' W 093°20'0 0.0
2017-Nov-07 12:57N 30°05' W 093°20'0 0.0
2017-Nov-07 12:31N 30°05' W 093°20'0 0.0
2017-Nov-07 11:58N 30°05' W 093°20'0 0.0
2017-Nov-07 11:25N 30°05' W 093°20'  
Track history (hours):
 
Tides and Currents Weather Stations Pressure Air Temp Water Temp Dewpoint Dewpoint Depression Visibility Wind Speed Wind Dir Waves Ship Positions

Capt Primeaux

Owner: Higman Barge Line, Inc., Orange, TX. More information available from US FCC via Universal Licensing System and Coast Guard Vessel Documentation Center.

Last reported at 2017-Nov-17 11:23 UTC. Time now 2017-Nov-19 18:08 UTC.
Position N 30°04' W 093°41'.

Length 26 m; draft 3 m.

Type: Towing. MMSI: 367690010.

Date/timePositionNaut miles runAvg speedWind from/ knotsBaromVisibWave heightAir tempDewpointWater temp
2017-Nov-17 11:23N 30°04' W 093°41'2 5.3
2017-Nov-17 11:00N 30°04' W 093°38'3 5.2
2017-Nov-17 10:24N 30°04' W 093°35'2 5.3
2017-Nov-17 10:00N 30°04' W 093°32'2 4.6
2017-Nov-17 09:30N 30°04' W 093°30'3 5.4
2017-Nov-17 09:00N 30°04' W 093°27'3 5.4
2017-Nov-17 08:30N 30°04' W 093°23'2 4.8
2017-Nov-17 08:00N 30°04' W 093°21'2 4.9
2017-Nov-17 07:30N 30°06' W 093°20'2 3.5
2017-Nov-17 06:59N 30°08' W 093°19'0 0.0
2017-Nov-17 06:29N 30°08' W 093°19'0 0.0
2017-Nov-17 05:59N 30°08' W 093°19'0 0.0
2017-Nov-17 05:29N 30°08' W 093°19'0 0.0
2017-Nov-17 04:59N 30°08' W 093°19'0 0.0
2017-Nov-17 04:29N 30°08' W 093°19'0 0.0
2017-Nov-17 03:59N 30°08' W 093°19'0 0.0
2017-Nov-17 03:29N 30°08' W 093°19'0 0.0
2017-Nov-17 02:59N 30°08' W 093°19'0 0.0
2017-Nov-17 02:29N 30°08' W 093°19'0 0.0
2017-Nov-17 01:59N 30°08' W 093°19'0 0.0
2017-Nov-17 01:29N 30°08' W 093°19'0 0.0
2017-Nov-17 00:59N 30°08' W 093°19'0 0.0
2017-Nov-17 00:29N 30°08' W 093°19'0 0.0
2017-Nov-16 23:59N 30°08' W 093°19'0 0.0
2017-Nov-16 23:29N 30°08' W 093°19'0 0.0
2017-Nov-16 22:59N 30°08' W 093°19'0 0.0
2017-Nov-16 22:29N 30°08' W 093°19'0 0.0
2017-Nov-16 21:59N 30°08' W 093°19'0 0.0
2017-Nov-16 21:29N 30°08' W 093°19'0 0.0
2017-Nov-16 20:59N 30°08' W 093°19'0 0.0
2017-Nov-16 20:29N 30°08' W 093°19'0 0.0
2017-Nov-16 19:59N 30°08' W 093°19'0 0.0
2017-Nov-16 19:29N 30°08' W 093°19'0 0.0
2017-Nov-16 18:59N 30°08' W 093°19'0 0.0
2017-Nov-16 18:29N 30°08' W 093°19'0 0.0
2017-Nov-16 17:59N 30°08' W 093°19'0 0.0
2017-Nov-16 17:29N 30°08' W 093°19'0 0.0
2017-Nov-16 16:59N 30°08' W 093°19'0 0.0
2017-Nov-16 16:29N 30°08' W 093°19'0 0.0
2017-Nov-16 15:59N 30°08' W 093°19'0 0.0
2017-Nov-16 15:29N 30°08' W 093°19'0 0.0
2017-Nov-16 14:56N 30°08' W 093°19'0 0.0
2017-Nov-16 14:29N 30°08' W 093°19'0 0.0
2017-Nov-16 13:59N 30°08' W 093°19'0 0.0
2017-Nov-16 13:29N 30°08' W 093°19'0 0.0
2017-Nov-16 12:59N 30°08' W 093°19'0 0.0
2017-Nov-16 12:29N 30°08' W 093°19'0 0.0
2017-Nov-16 11:59N 30°08' W 093°19'0 0.0
2017-Nov-16 11:29N 30°08' W 093°19'0 0.0
2017-Nov-16 10:59N 30°08' W 093°19'0 0.0
2017-Nov-16 10:29N 30°08' W 093°19'0 0.0
2017-Nov-16 09:59N 30°08' W 093°19'0 0.0
2017-Nov-16 09:29N 30°08' W 093°19'0 0.0
2017-Nov-16 08:59N 30°08' W 093°19'0 0.0
2017-Nov-16 08:29N 30°08' W 093°19'0 0.5
2017-Nov-16 07:59N 30°08' W 093°20'0 0.1
2017-Nov-16 07:29N 30°08' W 093°20'1 2.5
2017-Nov-16 07:00N 30°07' W 093°20'2 3.3
2017-Nov-16 06:30N 30°05' W 093°20'0 0.8
2017-Nov-16 05:59N 30°05' W 093°20'0 0.0
2017-Nov-16 05:29N 30°05' W 093°20'0 0.0
2017-Nov-16 04:59N 30°05' W 093°20'0 0.0
2017-Nov-16 04:29N 30°05' W 093°20'0 0.0
2017-Nov-16 03:59N 30°05' W 093°20'0 0.0
2017-Nov-16 03:29N 30°05' W 093°20'0 0.0
2017-Nov-16 02:59N 30°05' W 093°20'0 0.0
2017-Nov-16 02:29N 30°05' W 093°20'0 0.0
2017-Nov-16 01:59N 30°05' W 093°20'0 0.0
2017-Nov-16 01:29N 30°05' W 093°20'0 0.0
2017-Nov-16 00:59N 30°05' W 093°20'0 0.0
2017-Nov-16 00:29N 30°05' W 093°20'0 0.0
2017-Nov-15 23:59N 30°05' W 093°20'0 0.0
2017-Nov-15 23:29N 30°05' W 093°20'0 0.0
2017-Nov-15 22:59N 30°05' W 093°20'0 0.0
2017-Nov-15 22:29N 30°05' W 093°20'0 0.0
2017-Nov-15 21:59N 30°05' W 093°20'0 0.0
2017-Nov-15 21:29N 30°05' W 093°20'0 0.0
2017-Nov-15 20:59N 30°05' W 093°20'0 0.0
2017-Nov-15 20:29N 30°05' W 093°20'0 0.0
2017-Nov-15 19:59N 30°05' W 093°20'0 0.0
2017-Nov-15 19:29N 30°05' W 093°20'0 0.0
2017-Nov-15 18:59N 30°05' W 093°20'0 0.0
2017-Nov-15 18:29N 30°05' W 093°20'0 0.0
2017-Nov-15 17:59N 30°05' W 093°20'0 0.0
2017-Nov-15 17:29N 30°05' W 093°20'0 0.0
2017-Nov-15 17:00N 30°05' W 093°20'0 0.0
2017-Nov-15 16:30N 30°05' W 093°20'0 0.0
2017-Nov-15 16:00N 30°05' W 093°20'0 0.0
2017-Nov-15 15:30N 30°05' W 093°20'0 0.0
2017-Nov-15 15:00N 30°05' W 093°20'0 0.0
2017-Nov-15 14:30N 30°05' W 093°20'0 0.0
2017-Nov-15 14:00N 30°05' W 093°20'0 0.0
2017-Nov-15 13:30N 30°05' W 093°20'0 0.0
2017-Nov-15 13:00N 30°05' W 093°20'0 0.0
2017-Nov-15 12:30N 30°05' W 093°20'0 0.0
2017-Nov-15 12:00N 30°05' W 093°20'0 0.0
2017-Nov-15 11:30N 30°05' W 093°20'0 0.0
2017-Nov-15 11:00N 30°05' W 093°20'0 0.0
2017-Nov-15 10:30N 30°05' W 093°20'0 0.0
2017-Nov-15 10:00N 30°05' W 093°20'0 0.0
2017-Nov-15 09:30N 30°05' W 093°20'0 0.0
2017-Nov-15 09:00N 30°05' W 093°20'0 0.0
2017-Nov-15 08:30N 30°05' W 093°20'0 0.0
2017-Nov-15 08:00N 30°05' W 093°20'0 0.0
2017-Nov-15 07:30N 30°05' W 093°20'0 0.0
2017-Nov-15 07:00N 30°05' W 093°20'0 0.0
2017-Nov-15 06:30N 30°05' W 093°20'0 0.0
2017-Nov-15 06:00N 30°05' W 093°20'0 0.0
2017-Nov-15 05:30N 30°05' W 093°20'0 0.0
2017-Nov-15 05:00N 30°05' W 093°20'0 0.0
2017-Nov-15 04:30N 30°05' W 093°20'0 0.0
2017-Nov-15 04:00N 30°05' W 093°20'0 0.0
2017-Nov-15 03:30N 30°05' W 093°20'0 0.0
2017-Nov-15 03:00N 30°05' W 093°20'0 0.0
2017-Nov-15 02:30N 30°05' W 093°20'0 0.0
2017-Nov-15 02:00N 30°05' W 093°20'0 0.0
2017-Nov-15 01:30N 30°05' W 093°20'0 0.0
2017-Nov-15 01:00N 30°05' W 093°20'0 0.0
2017-Nov-15 00:30N 30°05' W 093°20'0 0.0
2017-Nov-15 00:00N 30°05' W 093°20'0 0.0
2017-Nov-14 23:30N 30°05' W 093°20'0 0.0
2017-Nov-14 23:00N 30°05' W 093°20'0 0.0
2017-Nov-14 22:30N 30°05' W 093°20'0 0.0
2017-Nov-14 22:00N 30°05' W 093°20'0 0.0
2017-Nov-14 21:30N 30°05' W 093°20'0 0.0
2017-Nov-14 21:00N 30°05' W 093°20'0 0.0
2017-Nov-14 20:30N 30°05' W 093°20'0 0.0
2017-Nov-14 20:00N 30°05' W 093°20'0 0.0
2017-Nov-14 19:28N 30°05' W 093°20'0 0.0
2017-Nov-14 18:58N 30°05' W 093°20'0 0.5
2017-Nov-14 18:30N 30°05' W 093°20'0 0.5
2017-Nov-14 17:59N 30°05' W 093°20'0 0.0
2017-Nov-14 17:29N 30°05' W 093°20'0 0.0
2017-Nov-14 16:59N 30°05' W 093°20'0 0.0
2017-Nov-14 16:29N 30°05' W 093°20'0 0.0
2017-Nov-14 15:59N 30°05' W 093°20'0 0.0
2017-Nov-14 15:29N 30°05' W 093°20'0 0.0
2017-Nov-14 14:59N 30°05' W 093°20'0 0.0
2017-Nov-14 14:29N 30°05' W 093°20'0 0.0
2017-Nov-14 13:59N 30°05' W 093°20'0 0.0
2017-Nov-14 13:29N 30°05' W 093°20'0 0.0
2017-Nov-14 12:59N 30°05' W 093°20'  
2017-Nov-09 06:47N 30°04' W 093°39'2 4.8
2017-Nov-09 06:19N 30°04' W 093°36'2 4.9
2017-Nov-09 06:00N 30°04' W 093°34'2 4.8
2017-Nov-09 05:30N 30°04' W 093°32'3 5.0
2017-Nov-09 05:00N 30°04' W 093°29'3 5.2
2017-Nov-09 04:30N 30°04' W 093°26'3 5.2
2017-Nov-09 04:00N 30°04' W 093°23'2 4.1
2017-Nov-09 03:30N 30°04' W 093°21'2 4.4
2017-Nov-09 03:00N 30°06' W 093°20'2 3.6
2017-Nov-09 02:29N 30°08' W 093°19'0 0.0
2017-Nov-09 01:59N 30°08' W 093°19'0 0.0
2017-Nov-09 01:29N 30°08' W 093°19'0 0.0
2017-Nov-09 00:59N 30°08' W 093°19'0 0.0
2017-Nov-09 00:29N 30°08' W 093°19'0 0.0
2017-Nov-08 23:59N 30°08' W 093°19'0 0.0
2017-Nov-08 23:29N 30°08' W 093°19'0 0.0
2017-Nov-08 22:59N 30°08' W 093°19'0 0.0
2017-Nov-08 22:29N 30°08' W 093°19'0 0.0
2017-Nov-08 21:59N 30°08' W 093°19'0 0.0
2017-Nov-08 21:29N 30°08' W 093°19'0 0.0
2017-Nov-08 20:59N 30°08' W 093°19'0 0.0
2017-Nov-08 20:29N 30°08' W 093°19'0 0.0
2017-Nov-08 19:59N 30°08' W 093°19'0 0.0
2017-Nov-08 19:29N 30°08' W 093°19'0 0.0
2017-Nov-08 18:59N 30°08' W 093°19'0 0.0
2017-Nov-08 18:29N 30°08' W 093°19'0 0.0
2017-Nov-08 17:59N 30°08' W 093°19'0 0.0
2017-Nov-08 17:29N 30°08' W 093°19'0 0.0
2017-Nov-08 16:59N 30°08' W 093°19'0 0.0
2017-Nov-08 16:29N 30°08' W 093°19'0 0.0
2017-Nov-08 15:59N 30°08' W 093°19'0 0.0
2017-Nov-08 15:29N 30°08' W 093°19'0 0.0
2017-Nov-08 14:59N 30°08' W 093°19'0 0.0
2017-Nov-08 14:29N 30°08' W 093°19'0 0.0
2017-Nov-08 13:59N 30°08' W 093°19'0 0.0
2017-Nov-08 13:29N 30°08' W 093°19'0 0.0
2017-Nov-08 12:59N 30°08' W 093°19'0 0.0
2017-Nov-08 12:29N 30°08' W 093°19'0 0.0
2017-Nov-08 11:59N 30°08' W 093°19'0 0.0
2017-Nov-08 11:29N 30°08' W 093°19'0 0.0
2017-Nov-08 10:59N 30°08' W 093°19'0 0.0
2017-Nov-08 10:29N 30°08' W 093°19'0 0.0
2017-Nov-08 09:59N 30°08' W 093°19'0 0.0
2017-Nov-08 09:29N 30°08' W 093°19'0 0.0
2017-Nov-08 08:59N 30°08' W 093°19'0 0.0
2017-Nov-08 08:29N 30°08' W 093°19'0 0.0
2017-Nov-08 07:59N 30°08' W 093°19'0 0.0
2017-Nov-08 07:29N 30°08' W 093°19'0 0.0
2017-Nov-08 06:59N 30°08' W 093°19'0 0.0
2017-Nov-08 06:29N 30°08' W 093°19'0 0.0
2017-Nov-08 05:59N 30°08' W 093°19'0 0.0
2017-Nov-08 05:29N 30°08' W 093°19'0 0.0
2017-Nov-08 04:59N 30°08' W 093°19'0 0.0
2017-Nov-08 04:29N 30°08' W 093°19'0 0.0
2017-Nov-08 03:59N 30°08' W 093°19'0 0.0
2017-Nov-08 03:29N 30°08' W 093°19'0 0.0
2017-Nov-08 02:59N 30°08' W 093°19'0 0.0
2017-Nov-08 02:29N 30°08' W 093°19'0 0.0
2017-Nov-08 01:59N 30°08' W 093°19'0 0.0
2017-Nov-08 01:29N 30°08' W 093°19'0 0.0
2017-Nov-08 00:59N 30°08' W 093°19'0 0.0
2017-Nov-08 00:29N 30°08' W 093°19'0 0.3
2017-Nov-08 00:00N 30°08' W 093°19'2 3.9
2017-Nov-07 23:30N 30°06' W 093°20'2 3.2
2017-Nov-07 22:59N 30°05' W 093°20'0 0.0
2017-Nov-07 22:29N 30°05' W 093°20'0 0.0
2017-Nov-07 21:59N 30°05' W 093°20'1 1.1
2017-Nov-07 21:30N 30°05' W 093°20'1 1.0
2017-Nov-07 21:00N 30°05' W 093°20'0 0.0
2017-Nov-07 20:30N 30°05' W 093°20'1 1.1
2017-Nov-07 20:00N 30°05' W 093°20'0 0.2
2017-Nov-07 19:29N 30°05' W 093°20'0 0.0
2017-Nov-07 18:59N 30°05' W 093°20'0 0.0
2017-Nov-07 18:29N 30°05' W 093°20'0 0.0
2017-Nov-07 17:59N 30°05' W 093°20'0 0.0
2017-Nov-07 17:29N 30°05' W 093°20'0 0.0
2017-Nov-07 16:59N 30°05' W 093°20'0 0.0
2017-Nov-07 16:29N 30°05' W 093°20'0 0.0
2017-Nov-07 15:59N 30°05' W 093°20'0 0.0
2017-Nov-07 15:23N 30°05' W 093°20'0 0.0
2017-Nov-07 14:59N 30°05' W 093°20'0 0.0
2017-Nov-07 14:29N 30°05' W 093°20'1 1.1
2017-Nov-07 14:01N 30°05' W 093°20'0 0.0
2017-Nov-07 13:27N 30°05' W 093°20'0 0.0
2017-Nov-07 12:57N 30°05' W 093°20'0 0.0
2017-Nov-07 12:31N 30°05' W 093°20'0 0.0
2017-Nov-07 11:58N 30°05' W 093°20'0 0.0
2017-Nov-07 11:25N 30°05' W 093°20'  

Dump ship's entire track history